PWSweather.com
Personal Weather Stations
Station Observations
IHTIMAN1
Neighbourhood 1, IhtimanBG 2050

Neighbourhood 1IhtimanBG 2050

Lat: 42.436852, Lon: 23.817921

Elevation: 2066

Station Type: Oregon Scientific WMR968

http://ihtiman-meteo.com

High Low Average
Temperature 71.4°F21.9°C 52.3°F11.3°C 59.8°F15.4°C
Dew Point 60.5°F15.8°C 51.8°F11.0°C 55.1°F12.8°C
Winds 9.2 mph 14.8 kmh Calm Calm 4.0 mph WNW6.4 kmh WNW
Wind Gusts 15.0 mph24.1 kmh -- 6.0 mph9.7 kmh
Humidity 98% 58% 86%
Pressure 30.06 in1017.9 mb 30.00 in1015.9 mb -
Precipitation 0.19 in4.8 mm - -
Hour Temp Dew Point Humidity Winds Wind Gusts Pressure Precip Precip Rate Daily Precip Total
12:00 AM 58.8°F14.9°C 52.7°F11.5°C 80% 2.3 mph NNW3.7 kmh NNW 3.5 mph5.6 kmh 30.06 in1017.9 mb - 0.00 in0.0 mm 0.00 in0.0 mm
12:10 AM 58.6°F14.8°C 52.5°F11.4°C 80% 3.5 mph NNW5.6 kmh NNW 4.6 mph7.4 kmh 30.06 in1017.9 mb - 0.00 in0.0 mm 0.00 in0.0 mm
12:20 AM 58.5°F14.7°C 52.3°F11.3°C 80% 3.5 mph N5.6 kmh N 3.5 mph5.6 kmh 30.06 in1017.9 mb - 0.00 in0.0 mm 0.00 in0.0 mm
12:30 AM 58.3°F14.6°C 52.5°F11.4°C 81% 2.3 mph NW3.7 kmh NW 3.5 mph5.6 kmh 30.06 in1017.9 mb - 0.00 in0.0 mm 0.00 in0.0 mm
12:40 AM 58.0°F14.4°C 52.5°F11.4°C 82% 3.5 mph NNW5.6 kmh NNW 3.5 mph5.6 kmh 30.06 in1017.9 mb - 0.00 in0.0 mm 0.00 in0.0 mm
12:50 AM 57.6°F14.2°C 52.4°F11.3°C 83% 2.3 mph N3.7 kmh N 4.6 mph7.4 kmh 30.06 in1017.9 mb - 0.00 in0.0 mm 0.00 in0.0 mm
01:00 AM 57.2°F14.0°C 52.4°F11.3°C 84% 3.5 mph N5.6 kmh N 3.5 mph5.6 kmh 30.06 in1017.9 mb - 0.00 in0.0 mm 0.00 in0.0 mm
01:10 AM 57.3°F14.1°C 53.1°F11.7°C 86% Calm Calm -- 30.06 in1017.9 mb - 0.00 in0.0 mm 0.00 in0.0 mm
01:20 AM 57.2°F14.0°C 53.3°F11.8°C 87% 1.2 mph NNW1.9 kmh NNW 3.5 mph5.6 kmh 30.06 in1017.9 mb - 0.00 in0.0 mm 0.00 in0.0 mm
01:30 AM 56.8°F13.8°C 53.6°F12.0°C 89% Calm Calm -- 30.06 in1017.9 mb - 0.00 in0.0 mm 0.00 in0.0 mm
01:40 AM 56.8°F13.8°C 53.9°F12.2°C 90% Calm Calm -- 30.06 in1017.9 mb - 0.00 in0.0 mm 0.00 in0.0 mm
01:50 AM 56.7°F13.7°C 53.8°F12.1°C 90% Calm Calm -- 30.06 in1017.9 mb - 0.00 in0.0 mm 0.00 in0.0 mm
02:00 AM 56.3°F13.5°C 53.4°F11.9°C 90% Calm Calm -- 30.06 in1017.9 mb - 0.00 in0.0 mm 0.00 in0.0 mm
02:10 AM 56.3°F13.5°C 53.7°F12.1°C 91% Calm Calm -- 30.06 in1017.9 mb - 0.00 in0.0 mm 0.00 in0.0 mm
02:20 AM 55.9°F13.3°C 53.4°F11.9°C 91% Calm Calm -- 30.06 in1017.9 mb - 0.00 in0.0 mm 0.00 in0.0 mm
02:30 AM 55.8°F13.2°C 53.2°F11.8°C 91% Calm Calm -- 30.06 in1017.9 mb - 0.00 in0.0 mm 0.00 in0.0 mm
02:40 AM 55.6°F13.1°C 53.3°F11.8°C 92% Calm Calm -- 30.06 in1017.9 mb - 0.00 in0.0 mm 0.00 in0.0 mm
02:50 AM 55.6°F13.1°C 53.3°F11.8°C 92% Calm Calm -- 30.03 in1016.9 mb - 0.00 in0.0 mm 0.00 in0.0 mm
03:00 AM 55.6°F13.1°C 53.6°F12.0°C 93% 1.2 mph NNW1.9 kmh NNW 3.5 mph5.6 kmh 30.03 in1016.9 mb - 0.00 in0.0 mm 0.00 in0.0 mm
03:10 AM 55.9°F13.3°C 53.9°F12.2°C 93% 4.6 mph NNW7.4 kmh NNW 5.8 mph9.3 kmh 30.03 in1016.9 mb - 0.00 in0.0 mm 0.00 in0.0 mm
03:20 AM 55.9°F13.3°C 54.2°F12.3°C 94% Calm Calm -- 30.03 in1016.9 mb - 0.00 in0.0 mm 0.00 in0.0 mm
03:30 AM 55.9°F13.3°C 54.2°F12.3°C 94% 2.3 mph N3.7 kmh N 3.5 mph5.6 kmh 30.03 in1016.9 mb - 0.00 in0.0 mm 0.00 in0.0 mm
03:40 AM 55.8°F13.2°C 54.1°F12.3°C 94% Calm Calm 3.5 mph5.6 kmh 30.03 in1016.9 mb - 0.00 in0.0 mm 0.00 in0.0 mm
03:50 AM 55.9°F13.3°C 54.2°F12.3°C 94% 2.3 mph NNW3.7 kmh NNW 3.5 mph5.6 kmh 30.03 in1016.9 mb - 0.00 in0.0 mm 0.00 in0.0 mm
04:00 AM 56.3°F13.5°C 54.6°F12.6°C 94% 2.3 mph N3.7 kmh N 3.5 mph5.6 kmh 30.03 in1016.9 mb - 0.00 in0.0 mm 0.00 in0.0 mm
04:10 AM 56.7°F13.7°C 55.0°F12.8°C 94% 2.3 mph NNW3.7 kmh NNW 3.5 mph5.6 kmh 30.03 in1016.9 mb - 0.00 in0.0 mm 0.00 in0.0 mm
04:20 AM 56.8°F13.8°C 55.1°F12.8°C 94% Calm Calm -- 30.03 in1016.9 mb - 0.00 in0.0 mm 0.00 in0.0 mm
04:30 AM 56.8°F13.8°C 54.8°F12.7°C 93% Calm Calm -- 30.03 in1016.9 mb - 0.00 in0.0 mm 0.00 in0.0 mm
04:40 AM 56.8°F13.8°C 54.5°F12.5°C 92% 2.3 mph NNW3.7 kmh NNW 5.8 mph9.3 kmh 30.03 in1016.9 mb - 0.00 in0.0 mm 0.00 in0.0 mm
04:50 AM 57.0°F13.9°C 54.7°F12.6°C 92% 3.5 mph N5.6 kmh N 5.8 mph9.3 kmh 30.03 in1016.9 mb - 0.00 in0.0 mm 0.00 in0.0 mm
05:00 AM 57.3°F14.1°C 54.7°F12.6°C 91% 3.5 mph NNW5.6 kmh NNW 4.6 mph7.4 kmh 30.03 in1016.9 mb - 0.00 in0.0 mm 0.00 in0.0 mm
05:10 AM 57.6°F14.2°C 55.0°F12.8°C 91% 1.2 mph N1.9 kmh N 4.6 mph7.4 kmh 30.03 in1016.9 mb - 0.00 in0.0 mm 0.00 in0.0 mm
05:20 AM 57.7°F14.3°C 55.1°F12.8°C 91% 3.5 mph NW5.6 kmh NW 4.6 mph7.4 kmh 30.03 in1016.9 mb - 0.00 in0.0 mm 0.00 in0.0 mm
05:30 AM 58.0°F14.4°C 55.0°F12.8°C 90% 3.5 mph N5.6 kmh N 3.5 mph5.6 kmh 30.03 in1016.9 mb - 0.00 in0.0 mm 0.00 in0.0 mm
05:40 AM 58.5°F14.7°C 55.2°F12.9°C 89% 4.6 mph N7.4 kmh N 5.8 mph9.3 kmh 30.03 in1016.9 mb - 0.00 in0.0 mm 0.00 in0.0 mm
05:50 AM 58.8°F14.9°C 55.3°F12.9°C 88% 4.6 mph N7.4 kmh N 8.1 mph13.0 kmh 30.03 in1016.9 mb - 0.00 in0.0 mm 0.00 in0.0 mm
06:00 AM 58.8°F14.9°C 55.0°F12.8°C 87% 3.5 mph N5.6 kmh N 5.8 mph9.3 kmh 30.03 in1016.9 mb - 0.00 in0.0 mm 0.00 in0.0 mm
06:10 AM 58.8°F14.9°C 54.6°F12.6°C 86% 3.5 mph N5.6 kmh N 3.5 mph5.6 kmh 30.03 in1016.9 mb - 0.00 in0.0 mm 0.00 in0.0 mm
06:30 AM 59.2°F15.1°C 54.7°F12.6°C 85% 4.6 mph N7.4 kmh N 5.8 mph9.3 kmh 30.03 in1016.9 mb - 0.00 in0.0 mm 0.00 in0.0 mm
06:40 AM 59.7°F15.4°C 55.1°F12.8°C 85% 4.6 mph NNW7.4 kmh NNW 5.8 mph9.3 kmh 30.03 in1016.9 mb - 0.00 in0.0 mm 0.00 in0.0 mm
06:50 AM 60.1°F15.6°C 54.9°F12.7°C 83% 3.5 mph N5.6 kmh N 8.1 mph13.0 kmh 30.03 in1016.9 mb - 0.00 in0.0 mm 0.00 in0.0 mm
07:00 AM 60.4°F15.8°C 54.6°F12.6°C 81% 5.8 mph N9.3 kmh N 8.1 mph13.0 kmh 30.03 in1016.9 mb - 0.00 in0.0 mm 0.00 in0.0 mm
07:10 AM 60.8°F16.0°C 54.2°F12.3°C 79% 3.5 mph NW5.6 kmh NW 5.8 mph9.3 kmh 30.03 in1016.9 mb - 0.00 in0.0 mm 0.00 in0.0 mm
07:20 AM 61.0°F16.1°C 54.1°F12.3°C 78% 4.6 mph N7.4 kmh N 8.1 mph13.0 kmh 30.03 in1016.9 mb - 0.00 in0.0 mm 0.00 in0.0 mm
07:30 AM 61.3°F16.3°C 54.1°F12.3°C 77% 4.6 mph NW7.4 kmh NW 8.1 mph13.0 kmh 30.03 in1016.9 mb - 0.00 in0.0 mm 0.00 in0.0 mm
07:40 AM 62.2°F16.8°C 54.5°F12.5°C 76% 4.6 mph NNW7.4 kmh NNW 5.8 mph9.3 kmh 30.03 in1016.9 mb - 0.00 in0.0 mm 0.00 in0.0 mm
07:50 AM 62.0°F16.7°C 53.6°F12.0°C 74% 6.9 mph NNW11.1 kmh NNW 8.1 mph13.0 kmh 30.03 in1016.9 mb - 0.00 in0.0 mm 0.00 in0.0 mm
08:00 AM 62.6°F17.0°C 54.2°F12.3°C 74% 5.8 mph NNW9.3 kmh NNW 9.2 mph14.8 kmh 30.03 in1016.9 mb - 0.00 in0.0 mm 0.00 in0.0 mm
08:10 AM 63.9°F17.7°C 55.1°F12.8°C 73% 6.9 mph N11.1 kmh N 8.1 mph13.0 kmh 30.03 in1016.9 mb - 0.00 in0.0 mm 0.00 in0.0 mm
08:20 AM 63.5°F17.5°C 53.9°F12.2°C 71% 5.8 mph NNW9.3 kmh NNW 9.2 mph14.8 kmh 30.03 in1016.9 mb - 0.00 in0.0 mm 0.00 in0.0 mm
08:30 AM 63.6°F17.6°C 54.0°F12.2°C 71% 5.8 mph NW9.3 kmh NW 5.8 mph9.3 kmh 30.03 in1016.9 mb - 0.00 in0.0 mm 0.00 in0.0 mm
08:40 AM 64.2°F17.9°C 54.6°F12.6°C 71% 5.8 mph NW9.3 kmh NW 11.5 mph18.5 kmh 30.03 in1016.9 mb - 0.00 in0.0 mm 0.00 in0.0 mm
08:50 AM 64.4°F18.0°C 54.4°F12.4°C 70% 5.8 mph NW9.3 kmh NW 9.2 mph14.8 kmh 30.03 in1016.9 mb - 0.00 in0.0 mm 0.00 in0.0 mm
09:00 AM 63.4°F17.4°C 53.4°F11.9°C 70% 4.6 mph WNW7.4 kmh WNW 5.8 mph9.3 kmh 30.06 in1017.9 mb - 0.00 in0.0 mm 0.00 in0.0 mm
09:10 AM 63.7°F17.6°C 54.1°F12.3°C 71% 4.6 mph N7.4 kmh N 8.1 mph13.0 kmh 30.06 in1017.9 mb - 0.00 in0.0 mm 0.00 in0.0 mm
09:20 AM 64.7°F18.2°C 54.7°F12.6°C 70% 6.9 mph N11.1 kmh N 9.2 mph14.8 kmh 30.03 in1016.9 mb - 0.00 in0.0 mm 0.00 in0.0 mm
09:30 AM 65.7°F18.7°C 55.3°F12.9°C 69% 6.9 mph N11.1 kmh N 10.4 mph16.7 kmh 30.03 in1016.9 mb - 0.00 in0.0 mm 0.00 in0.0 mm
09:40 AM 66.0°F18.9°C 54.8°F12.7°C 67% 3.5 mph NNW5.6 kmh NNW 4.6 mph7.4 kmh 30.03 in1016.9 mb - 0.00 in0.0 mm 0.00 in0.0 mm
09:50 AM 66.3°F19.1°C 55.0°F12.8°C 67% 5.8 mph 9.3 kmh 8.1 mph13.0 kmh 30.03 in1016.9 mb - 0.00 in0.0 mm 0.00 in0.0 mm
10:00 AM 67.3°F19.6°C 55.1°F12.8°C 65% 5.8 mph NNW9.3 kmh NNW 8.1 mph13.0 kmh 30.03 in1016.9 mb - 0.00 in0.0 mm 0.00 in0.0 mm
10:10 AM 66.1°F18.9°C 54.4°F12.4°C 66% 6.9 mph NW11.1 kmh NW 8.1 mph13.0 kmh 30.03 in1016.9 mb - 0.00 in0.0 mm 0.00 in0.0 mm
10:20 AM 66.5°F19.2°C 54.8°F12.7°C 66% 4.6 mph N7.4 kmh N 6.9 mph11.1 kmh 30.03 in1016.9 mb - 0.00 in0.0 mm 0.00 in0.0 mm
10:30 AM 66.9°F19.4°C 54.7°F12.6°C 65% 6.9 mph NNW11.1 kmh NNW 8.1 mph13.0 kmh 30.06 in1017.9 mb - 0.00 in0.0 mm 0.00 in0.0 mm
10:40 AM 67.8°F19.9°C 55.2°F12.9°C 64% 6.9 mph N11.1 kmh N 8.1 mph13.0 kmh 30.06 in1017.9 mb - 0.00 in0.0 mm 0.00 in0.0 mm
10:50 AM 66.9°F19.4°C 54.8°F12.7°C 65% 6.9 mph NNW11.1 kmh NNW 12.7 mph20.4 kmh 30.06 in1017.9 mb - 0.00 in0.0 mm 0.00 in0.0 mm
11:00 AM 69.6°F20.9°C 56.5°F13.6°C 63% 8.1 mph 13.0 kmh 12.7 mph20.4 kmh 30.03 in1016.9 mb - 0.00 in0.0 mm 0.00 in0.0 mm
11:10 AM 68.7°F20.4°C 55.2°F12.9°C 62% 6.9 mph N11.1 kmh N 9.2 mph14.8 kmh 30.03 in1016.9 mb - 0.00 in0.0 mm 0.00 in0.0 mm
11:20 AM 68.4°F20.2°C 54.9°F12.7°C 62% 5.8 mph N9.3 kmh N 8.1 mph13.0 kmh 30.03 in1016.9 mb - 0.00 in0.0 mm 0.00 in0.0 mm
11:30 AM 68.3°F20.2°C 54.7°F12.6°C 62% 8.1 mph N13.0 kmh N 9.2 mph14.8 kmh 30.03 in1016.9 mb - 0.00 in0.0 mm 0.00 in0.0 mm
11:40 AM 69.0°F20.6°C 55.4°F13.0°C 62% 5.8 mph N9.3 kmh N 8.1 mph13.0 kmh 30.03 in1016.9 mb - 0.00 in0.0 mm 0.00 in0.0 mm
11:50 AM 68.8°F20.4°C 55.2°F12.9°C 62% 5.8 mph NNW9.3 kmh NNW 11.5 mph18.5 kmh 30.03 in1016.9 mb - 0.00 in0.0 mm 0.00 in0.0 mm
12:00 PM 69.6°F20.9°C 55.6°F13.1°C 61% 5.8 mph N9.3 kmh N 8.1 mph13.0 kmh 30.03 in1016.9 mb - 0.00 in0.0 mm 0.00 in0.0 mm
12:10 PM 70.3°F21.3°C 55.7°F13.2°C 60% 8.1 mph NNW13.0 kmh NNW 10.4 mph16.7 kmh 30.03 in1016.9 mb - 0.00 in0.0 mm 0.00 in0.0 mm
12:20 PM 70.7°F21.5°C 55.7°F13.2°C 59% 4.6 mph N7.4 kmh N 9.2 mph14.8 kmh 30.00 in1015.9 mb - 0.00 in0.0 mm 0.00 in0.0 mm
12:30 PM 71.4°F21.9°C 56.3°F13.5°C 59% 6.9 mph NNE11.1 kmh NNE 12.7 mph20.4 kmh 30.03 in1016.9 mb - 0.00 in0.0 mm 0.00 in0.0 mm
12:40 PM 71.4°F21.9°C 55.9°F13.3°C 58% 8.1 mph N13.0 kmh N 11.5 mph18.5 kmh 30.03 in1016.9 mb - 0.00 in0.0 mm 0.00 in0.0 mm
12:50 PM 70.4°F21.3°C 54.9°F12.7°C 58% 5.8 mph N9.3 kmh N 12.7 mph20.4 kmh 30.03 in1016.9 mb - 0.00 in0.0 mm 0.00 in0.0 mm
01:00 PM 69.2°F20.7°C 54.7°F12.6°C 60% 8.1 mph N13.0 kmh N 12.7 mph20.4 kmh 30.00 in1015.9 mb - 0.00 in0.0 mm 0.00 in0.0 mm
01:10 PM 68.7°F20.4°C 54.3°F12.4°C 60% 9.2 mph NNE14.8 kmh NNE 13.8 mph22.2 kmh 30.00 in1015.9 mb - 0.00 in0.0 mm 0.00 in0.0 mm
01:20 PM 69.1°F20.6°C 54.6°F12.6°C 60% 8.1 mph NNW13.0 kmh NNW 11.5 mph18.5 kmh 30.00 in1015.9 mb - 0.00 in0.0 mm 0.00 in0.0 mm
01:30 PM 68.3°F20.2°C 54.4°F12.4°C 61% 8.1 mph N13.0 kmh N 10.4 mph16.7 kmh 30.00 in1015.9 mb - 0.00 in0.0 mm 0.00 in0.0 mm
01:40 PM 67.2°F19.6°C 53.7°F12.1°C 62% 6.9 mph N11.1 kmh N 8.1 mph13.0 kmh 30.00 in1015.9 mb - 0.00 in0.0 mm 0.00 in0.0 mm
01:50 PM 65.5°F18.6°C 55.1°F12.8°C 69% 8.1 mph NW13.0 kmh NW 15.0 mph24.1 kmh 30.00 in1015.9 mb - 0.00 in0.0 mm 0.00 in0.0 mm
02:00 PM 61.9°F16.6°C 56.7°F13.7°C 83% 5.8 mph NE9.3 kmh NE 5.8 mph9.3 kmh 30.03 in1016.9 mb - 0.05 in1.3 mm 0.05 in1.3 mm
02:10 PM 60.7°F15.9°C 58.0°F14.4°C 91% 4.6 mph N7.4 kmh N 8.1 mph13.0 kmh 30.03 in1016.9 mb - 0.09 in2.3 mm 0.09 in2.3 mm
02:20 PM 60.6°F15.9°C 59.2°F15.1°C 95% 3.5 mph N5.6 kmh N 5.8 mph9.3 kmh 30.03 in1016.9 mb - 0.09 in2.3 mm 0.09 in2.3 mm
02:40 PM 61.1°F16.2°C 60.3°F15.7°C 97% 4.6 mph NNW7.4 kmh NNW 5.8 mph9.3 kmh 30.00 in1015.9 mb - 0.09 in2.3 mm 0.09 in2.3 mm
02:50 PM 61.3°F16.3°C 60.5°F15.8°C 97% 4.6 mph WNW7.4 kmh WNW 6.9 mph11.1 kmh 30.00 in1015.9 mb - 0.09 in2.3 mm 0.09 in2.3 mm
03:00 PM 61.1°F16.2°C 60.2°F15.7°C 97% 6.9 mph NW11.1 kmh NW 10.4 mph16.7 kmh 30.00 in1015.9 mb - 0.09 in2.3 mm 0.09 in2.3 mm
03:10 PM 60.6°F15.9°C 59.8°F15.4°C 97% 5.8 mph NNW9.3 kmh NNW 8.1 mph13.0 kmh 30.00 in1015.9 mb - 0.00 in0.0 mm 0.09 in2.3 mm
03:20 PM 60.1°F15.6°C 58.9°F14.9°C 96% 4.6 mph N7.4 kmh N 9.2 mph14.8 kmh 30.00 in1015.9 mb - 0.00 in0.0 mm 0.09 in2.3 mm
03:30 PM 59.7°F15.4°C 58.6°F14.8°C 96% 5.8 mph N9.3 kmh N 11.5 mph18.5 kmh 30.00 in1015.9 mb - 0.00 in0.0 mm 0.09 in2.3 mm
03:40 PM 59.2°F15.1°C 58.1°F14.5°C 96% 8.1 mph NW13.0 kmh NW 12.7 mph20.4 kmh 30.00 in1015.9 mb - 0.00 in0.0 mm 0.09 in2.3 mm
03:50 PM 58.8°F14.9°C 57.7°F14.3°C 96% 5.8 mph N9.3 kmh N 10.4 mph16.7 kmh 30.03 in1016.9 mb - 0.00 in0.0 mm 0.09 in2.3 mm
04:00 PM 58.5°F14.7°C 57.6°F14.2°C 97% 9.2 mph N14.8 kmh N 15.0 mph24.1 kmh 30.03 in1016.9 mb - 0.00 in0.0 mm 0.09 in2.3 mm
04:10 PM 58.5°F14.7°C 57.6°F14.2°C 97% 5.8 mph N9.3 kmh N 12.7 mph20.4 kmh 30.03 in1016.9 mb - 0.00 in0.0 mm 0.09 in2.3 mm
04:20 PM 58.1°F14.5°C 57.6°F14.2°C 98% 3.5 mph N5.6 kmh N 8.1 mph13.0 kmh 30.03 in1016.9 mb - 0.00 in0.0 mm 0.09 in2.3 mm
04:30 PM 57.9°F14.4°C 57.4°F14.1°C 98% 4.6 mph NNW7.4 kmh NNW 10.4 mph16.7 kmh 30.03 in1016.9 mb - 0.00 in0.0 mm 0.09 in2.3 mm
04:40 PM 57.7°F14.3°C 57.2°F14.0°C 98% 3.5 mph NNW5.6 kmh NNW 3.5 mph5.6 kmh 30.03 in1016.9 mb - 0.00 in0.0 mm 0.09 in2.3 mm
04:50 PM 57.6°F14.2°C 57.0°F13.9°C 98% 5.8 mph NW9.3 kmh NW 8.1 mph13.0 kmh 30.03 in1016.9 mb - 0.05 in1.3 mm 0.14 in3.6 mm
05:00 PM 57.6°F14.2°C 57.0°F13.9°C 98% 6.9 mph NNW11.1 kmh NNW 8.1 mph13.0 kmh 30.03 in1016.9 mb - 0.05 in1.3 mm 0.14 in3.6 mm
05:10 PM 57.4°F14.1°C 56.8°F13.8°C 98% 4.6 mph NW7.4 kmh NW 8.1 mph13.0 kmh 30.03 in1016.9 mb - 0.05 in1.3 mm 0.14 in3.6 mm
05:20 PM 57.3°F14.1°C 56.8°F13.8°C 98% 5.8 mph NW9.3 kmh NW 8.1 mph13.0 kmh 30.03 in1016.9 mb - 0.05 in1.3 mm 0.14 in3.6 mm
05:30 PM 57.8°F14.3°C 57.3°F14.1°C 98% 5.8 mph N9.3 kmh N 8.1 mph13.0 kmh 30.03 in1016.9 mb - 0.05 in1.3 mm 0.14 in3.6 mm
05:40 PM 57.6°F14.2°C 57.0°F13.9°C 98% 4.6 mph NW7.4 kmh NW 5.8 mph9.3 kmh 30.03 in1016.9 mb - 0.05 in1.3 mm 0.14 in3.6 mm
05:50 PM 57.9°F14.4°C 57.4°F14.1°C 98% 3.5 mph W5.6 kmh W 5.8 mph9.3 kmh 30.03 in1016.9 mb - 0.00 in0.0 mm 0.14 in3.6 mm
06:00 PM 57.7°F14.3°C 57.2°F14.0°C 98% 3.5 mph NNW5.6 kmh NNW 5.8 mph9.3 kmh 30.03 in1016.9 mb - 0.00 in0.0 mm 0.14 in3.6 mm
06:10 PM 57.7°F14.3°C 57.1°F13.9°C 98% 4.6 mph NNW7.4 kmh NNW 5.8 mph9.3 kmh 30.03 in1016.9 mb - 0.00 in0.0 mm 0.14 in3.6 mm
06:20 PM 57.5°F14.2°C 57.0°F13.9°C 98% 1.2 mph WNW1.9 kmh WNW 4.6 mph7.4 kmh 30.03 in1016.9 mb - 0.00 in0.0 mm 0.14 in3.6 mm
06:30 PM 57.2°F14.0°C 56.6°F13.7°C 98% 3.5 mph WNW5.6 kmh WNW 5.8 mph9.3 kmh 30.03 in1016.9 mb - 0.00 in0.0 mm 0.14 in3.6 mm
06:40 PM 56.8°F13.8°C 56.3°F13.5°C 98% 1.2 mph NW1.9 kmh NW 4.6 mph7.4 kmh 30.03 in1016.9 mb - 0.05 in1.3 mm 0.19 in4.8 mm
06:50 PM 56.7°F13.7°C 56.1°F13.4°C 98% Calm Calm 3.5 mph5.6 kmh 30.03 in1016.9 mb - 0.05 in1.3 mm 0.19 in4.8 mm
07:00 PM 56.7°F13.7°C 56.1°F13.4°C 98% 2.3 mph NW3.7 kmh NW 5.8 mph9.3 kmh 30.03 in1016.9 mb - 0.05 in1.3 mm 0.19 in4.8 mm
07:10 PM 56.5°F13.6°C 55.9°F13.3°C 98% 1.2 mph NW1.9 kmh NW 5.8 mph9.3 kmh 30.03 in1016.9 mb - 0.05 in1.3 mm 0.19 in4.8 mm
07:20 PM 56.3°F13.5°C 55.7°F13.2°C 98% 2.3 mph NW3.7 kmh NW 5.8 mph9.3 kmh 30.03 in1016.9 mb - 0.05 in1.3 mm 0.19 in4.8 mm
07:30 PM 56.3°F13.5°C 55.7°F13.2°C 98% 3.5 mph NW5.6 kmh NW 5.8 mph9.3 kmh 30.03 in1016.9 mb - 0.05 in1.3 mm 0.19 in4.8 mm
07:40 PM 56.3°F13.5°C 55.7°F13.2°C 98% 2.3 mph N3.7 kmh N 5.8 mph9.3 kmh 30.03 in1016.9 mb - 0.00 in0.0 mm 0.19 in4.8 mm
07:50 PM 56.3°F13.5°C 55.7°F13.2°C 98% Calm Calm 3.5 mph5.6 kmh 30.03 in1016.9 mb - 0.00 in0.0 mm 0.19 in4.8 mm
08:00 PM 56.3°F13.5°C 55.7°F13.2°C 98% Calm Calm -- 30.03 in1016.9 mb - 0.00 in0.0 mm 0.19 in4.8 mm
08:10 PM 56.1°F13.4°C 55.6°F13.1°C 98% Calm Calm -- 30.03 in1016.9 mb - 0.00 in0.0 mm 0.19 in4.8 mm
08:20 PM 56.1°F13.4°C 55.6°F13.1°C 98% Calm Calm -- 30.03 in1016.9 mb - 0.00 in0.0 mm 0.19 in4.8 mm
08:30 PM 55.9°F13.3°C 55.4°F13.0°C 98% Calm Calm -- 30.03 in1016.9 mb - 0.00 in0.0 mm 0.19 in4.8 mm
08:40 PM 55.8°F13.2°C 55.2°F12.9°C 98% Calm Calm -- 30.03 in1016.9 mb - 0.00 in0.0 mm 0.19 in4.8 mm
08:50 PM 55.8°F13.2°C 55.2°F12.9°C 98% Calm Calm -- 30.03 in1016.9 mb - 0.00 in0.0 mm 0.19 in4.8 mm
09:00 PM 55.8°F13.2°C 55.2°F12.9°C 98% Calm Calm -- 30.03 in1016.9 mb - 0.00 in0.0 mm 0.19 in4.8 mm
09:10 PM 55.9°F13.3°C 55.4°F13.0°C 98% Calm Calm -- 30.03 in1016.9 mb - 0.00 in0.0 mm 0.19 in4.8 mm
09:20 PM 55.6°F13.1°C 55.1°F12.8°C 98% Calm Calm -- 30.03 in1016.9 mb - 0.00 in0.0 mm 0.19 in4.8 mm
09:30 PM 55.4°F13.0°C 54.8°F12.7°C 98% Calm Calm -- 30.03 in1016.9 mb - 0.00 in0.0 mm 0.19 in4.8 mm
09:40 PM 55.0°F12.8°C 54.5°F12.5°C 98% Calm Calm -- 30.03 in1016.9 mb - 0.00 in0.0 mm 0.19 in4.8 mm
09:50 PM 54.7°F12.6°C 54.1°F12.3°C 98% Calm Calm -- 30.03 in1016.9 mb - 0.00 in0.0 mm 0.19 in4.8 mm
10:00 PM 54.7°F12.6°C 54.1°F12.3°C 98% 3.5 mph N5.6 kmh N 5.8 mph9.3 kmh 30.03 in1016.9 mb - 0.00 in0.0 mm 0.19 in4.8 mm
10:10 PM 54.7°F12.6°C 54.1°F12.3°C 98% 3.5 mph N5.6 kmh N 8.1 mph13.0 kmh 30.03 in1016.9 mb - 0.00 in0.0 mm 0.19 in4.8 mm
10:20 PM 54.5°F12.5°C 53.9°F12.2°C 98% 5.8 mph N9.3 kmh N 10.4 mph16.7 kmh 30.03 in1016.9 mb - 0.00 in0.0 mm 0.19 in4.8 mm
10:30 PM 54.2°F12.3°C 53.6°F12.0°C 98% 4.6 mph N7.4 kmh N 5.8 mph9.3 kmh 30.03 in1016.9 mb - 0.00 in0.0 mm 0.19 in4.8 mm
10:40 PM 54.0°F12.2°C 53.4°F11.9°C 98% 3.5 mph NW5.6 kmh NW 8.1 mph13.0 kmh 30.03 in1016.9 mb - 0.00 in0.0 mm 0.19 in4.8 mm
10:50 PM 53.6°F12.0°C 53.0°F11.7°C 98% 1.2 mph W1.9 kmh W -- 30.03 in1016.9 mb - 0.00 in0.0 mm 0.19 in4.8 mm
11:00 PM 53.2°F11.8°C 52.7°F11.5°C 98% 2.3 mph NW3.7 kmh NW 3.5 mph5.6 kmh 30.03 in1016.9 mb - 0.00 in0.0 mm 1.10 in27.9 mm
11:10 PM 53.1°F11.7°C 52.5°F11.4°C 98% Calm Calm 2.3 mph3.7 kmh 30.03 in1016.9 mb - 0.00 in0.0 mm 1.10 in27.9 mm
11:20 PM 52.9°F11.6°C 52.3°F11.3°C 98% 3.5 mph N5.6 kmh N 5.8 mph9.3 kmh 30.03 in1016.9 mb - 0.00 in0.0 mm 1.10 in27.9 mm
11:30 PM 52.7°F11.5°C 52.2°F11.2°C 98% Calm Calm 3.5 mph5.6 kmh 30.03 in1016.9 mb - 0.00 in0.0 mm 1.10 in27.9 mm
11:40 PM 52.3°F11.3°C 51.8°F11.0°C 98% Calm Calm 2.3 mph3.7 kmh 30.03 in1016.9 mb - 0.00 in0.0 mm 1.10 in27.9 mm
11:50 PM 52.3°F11.3°C 51.8°F11.0°C 98% 1.2 mph N1.9 kmh N 3.5 mph5.6 kmh 30.03 in1016.9 mb - 0.00 in0.0 mm 1.10 in27.9 mm